sensor_id;sensor_type;location;lat;lon;timestamp;pressure;altitude;pressure_sealevel;temperature;humidity
29417;BME280;28421;51.030;4.006;2023-02-28T00:00:09;103069.16;;;0.05;67.92
29417;BME280;28421;51.030;4.006;2023-02-28T00:02:42;103048.78;;;0.07;67.71
29417;BME280;28421;51.030;4.006;2023-02-28T00:05:10;103101.59;;;0.36;67.60
29417;BME280;28421;51.030;4.006;2023-02-28T00:07:36;103058.88;;;0.22;67.24
29417;BME280;28421;51.030;4.006;2023-02-28T00:10:03;102990.72;;;-0.23;67.45
29417;BME280;28421;51.030;4.006;2023-02-28T00:12:28;103044.50;;;0.03;67.53
29417;BME280;28421;51.030;4.006;2023-02-28T00:14:54;103040.16;;;0.02;67.33
29417;BME280;28421;51.030;4.006;2023-02-28T00:17:19;103025.78;;;-0.18;67.76
29417;BME280;28421;51.030;4.006;2023-02-28T00:19:47;103058.72;;;0.00;68.04
29417;BME280;28421;51.030;4.006;2023-02-28T00:22:14;103082.84;;;0.17;67.56
29417;BME280;28421;51.030;4.006;2023-02-28T00:24:40;103032.38;;;-0.03;67.86
29417;BME280;28421;51.030;4.006;2023-02-28T00:27:05;103074.69;;;0.23;67.90
29417;BME280;28421;51.030;4.006;2023-02-28T00:29:30;103041.97;;;-0.01;67.82
29417;BME280;28421;51.030;4.006;2023-02-28T00:31:56;103014.72;;;-0.03;67.74
29417;BME280;28421;51.030;4.006;2023-02-28T05:37:57;103052.03;;;0.41;71.54
29417;BME280;28421;51.030;4.006;2023-02-28T05:40:22;103044.16;;;0.40;71.33
29417;BME280;28421;51.030;4.006;2023-02-28T05:42:50;103046.72;;;0.41;71.19
29417;BME280;28421;51.030;4.006;2023-02-28T05:45:15;103059.56;;;0.79;70.76
29417;BME280;28421;51.030;4.006;2023-02-28T05:47:42;103098.81;;;0.92;70.29
29417;BME280;28421;51.030;4.006;2023-02-28T05:50:08;103084.88;;;0.87;70.77
29417;BME280;28421;51.030;4.006;2023-02-28T05:52:34;103095.66;;;1.06;70.23
29417;BME280;28421;51.030;4.006;2023-02-28T05:55:00;103078.66;;;1.12;69.60
29417;BME280;28421;51.030;4.006;2023-02-28T05:57:25;103086.94;;;1.03;70.25
29417;BME280;28421;51.030;4.006;2023-02-28T05:59:50;103058.53;;;0.83;70.31
29417;BME280;28421;51.030;4.006;2023-02-28T06:02:17;103021.69;;;0.77;70.11
29417;BME280;28421;51.030;4.006;2023-02-28T06:04:43;103074.47;;;1.06;69.76
29417;BME280;28421;51.030;4.006;2023-02-28T06:07:10;103071.97;;;1.02;69.77
29417;BME280;28421;51.030;4.006;2023-02-28T06:09:36;103041.28;;;0.96;69.98
29417;BME280;28421;51.030;4.006;2023-02-28T06:12:04;103070.38;;;0.97;70.23
29417;BME280;28421;51.030;4.006;2023-02-28T06:14:31;103047.34;;;0.74;70.53
29417;BME280;28421;51.030;4.006;2023-02-28T06:16:58;103074.97;;;0.92;70.03
29417;BME280;28421;51.030;4.006;2023-02-28T06:19:24;103055.25;;;0.76;70.41
29417;BME280;28421;51.030;4.006;2023-02-28T06:21:53;103122.56;;;1.19;70.38
29417;BME280;28421;51.030;4.006;2023-02-28T06:24:20;103099.34;;;1.02;70.26
29417;BME280;28421;51.030;4.006;2023-02-28T06:26:45;103087.63;;;0.84;70.57
29417;BME280;28421;51.030;4.006;2023-02-28T06:29:11;103089.94;;;0.93;70.31
29417;BME280;28421;51.030;4.006;2023-02-28T06:31:36;103082.81;;;0.95;70.20
29417;BME280;28421;51.030;4.006;2023-02-28T06:34:04;103111.03;;;1.20;69.83
29417;BME280;28421;51.030;4.006;2023-02-28T06:36:29;103115.00;;;1.33;70.02
29417;BME280;28421;51.030;4.006;2023-02-28T06:38:55;103083.69;;;0.96;70.14
29417;BME280;28421;51.030;4.006;2023-02-28T06:41:25;103129.81;;;1.39;70.02
29417;BME280;28421;51.030;4.006;2023-02-28T06:43:51;103131.25;;;1.47;69.76
29417;BME280;28421;51.030;4.006;2023-02-28T06:46:17;103070.31;;;1.22;68.98
29417;BME280;28421;51.030;4.006;2023-02-28T06:48:43;103100.47;;;1.43;68.75
29417;BME280;28421;51.030;4.006;2023-02-28T06:51:19;103081.31;;;1.12;69.34
29417;BME280;28421;51.030;4.006;2023-02-28T06:53:49;103101.97;;;1.27;69.55
29417;BME280;28421;51.030;4.006;2023-02-28T06:56:16;103102.69;;;1.07;70.37
29417;BME280;28421;51.030;4.006;2023-02-28T06:58:45;103123.41;;;1.21;70.39
29417;BME280;28421;51.030;4.006;2023-02-28T07:01:10;103140.34;;;1.40;70.16
29417;BME280;28421;51.030;4.006;2023-02-28T07:03:36;103097.97;;;1.15;70.67
29417;BME280;28421;51.030;4.006;2023-02-28T07:06:01;103124.16;;;1.24;70.06
29417;BME280;28421;51.030;4.006;2023-02-28T07:08:28;103096.63;;;1.29;69.86
29417;BME280;28421;51.030;4.006;2023-02-28T07:10:54;103093.63;;;1.38;69.54
29417;BME280;28421;51.030;4.006;2023-02-28T07:13:20;103142.66;;;1.49;69.88
29417;BME280;28421;51.030;4.006;2023-02-28T07:15:58;103110.28;;;1.41;69.76
29417;BME280;28421;51.030;4.006;2023-02-28T07:18:24;103144.50;;;1.71;69.94
29417;BME280;28421;51.030;4.006;2023-02-28T07:20:50;103153.31;;;1.71;69.88
29417;BME280;28421;51.030;4.006;2023-02-28T07:23:15;103046.00;;;0.88;70.76
29417;BME280;28421;51.030;4.006;2023-02-28T07:25:41;103097.63;;;1.48;70.45
29417;BME280;28421;51.030;4.006;2023-02-28T07:28:06;103053.16;;;1.33;69.99
29417;BME280;28421;51.030;4.006;2023-02-28T07:30:32;103082.38;;;1.31;70.43
29417;BME280;28421;51.030;4.006;2023-02-28T07:32:57;103127.91;;;1.42;70.96
29417;BME280;28421;51.030;4.006;2023-02-28T09:45:28;103127.72;;;3.96;46.44
29417;BME280;28421;51.030;4.006;2023-02-28T09:47:59;103134.50;;;4.04;45.25
29417;BME280;28421;51.030;4.006;2023-02-28T09:50:38;103098.03;;;3.87;46.26
29417;BME280;28421;51.030;4.006;2023-02-28T09:53:36;103104.06;;;3.71;46.60
29417;BME280;28421;51.030;4.006;2023-02-28T09:56:08;103086.03;;;3.59;47.00
29417;BME280;28421;51.030;4.006;2023-02-28T09:58:42;103101.53;;;4.06;48.59
29417;BME280;28421;51.030;4.006;2023-02-28T10:07:02;103101.44;;;4.96;46.46
29417;BME280;28421;51.030;4.006;2023-02-28T10:09:33;103105.84;;;4.80;45.63
29417;BME280;28421;51.030;4.006;2023-02-28T10:12:03;103089.34;;;5.06;46.71
29417;BME280;28421;51.030;4.006;2023-02-28T10:14:32;103075.34;;;4.85;46.55
29417;BME280;28421;51.030;4.006;2023-02-28T10:17:02;103098.03;;;5.10;46.11
29417;BME280;28421;51.030;4.006;2023-02-28T10:19:34;103113.88;;;5.46;45.51
29417;BME280;28421;51.030;4.006;2023-02-28T10:22:24;103115.78;;;5.60;44.67
29417;BME280;28421;51.030;4.006;2023-02-28T10:24:54;103067.13;;;5.23;45.45
29417;BME280;28421;51.030;4.006;2023-02-28T10:27:24;103104.25;;;5.59;45.29
29417;BME280;28421;51.030;4.006;2023-02-28T10:29:54;103057.22;;;4.92;44.14
29417;BME280;28421;51.030;4.006;2023-02-28T10:32:23;103061.63;;;5.42;44.81
29417;BME280;28421;51.030;4.006;2023-02-28T10:35:01;103098.72;;;5.46;45.46
29417;BME280;28421;51.030;4.006;2023-02-28T10:37:31;103057.25;;;5.57;46.78
29417;BME280;28421;51.030;4.006;2023-02-28T10:39:57;103042.41;;;5.19;43.90
29417;BME280;28421;51.030;4.006;2023-02-28T10:42:25;103001.75;;;4.83;43.84
29417;BME280;28421;51.030;4.006;2023-02-28T10:45:12;103037.34;;;4.82;43.36
29417;BME280;28421;51.030;4.006;2023-02-28T10:58:55;103080.00;;;5.31;43.83
29417;BME280;28421;51.030;4.006;2023-02-28T11:01:42;103051.59;;;5.14;43.02
29417;BME280;28421;51.030;4.006;2023-02-28T11:09:39;103030.16;;;4.99;42.11
29417;BME280;28421;51.030;4.006;2023-02-28T11:12:08;103026.66;;;5.15;42.49
29417;BME280;28421;51.030;4.006;2023-02-28T11:14:51;103015.13;;;5.30;42.58
29417;BME280;28421;51.030;4.006;2023-02-28T11:19:51;103057.97;;;5.11;41.56
29417;BME280;28421;51.030;4.006;2023-02-28T11:22:22;103047.31;;;5.11;41.89
29417;BME280;28421;51.030;4.006;2023-02-28T11:24:51;103014.47;;;4.78;41.33
29417;BME280;28421;51.030;4.006;2023-02-28T11:27:26;103036.88;;;5.07;42.96
29417;BME280;28421;51.030;4.006;2023-02-28T11:30:23;103027.97;;;5.23;42.39
29417;BME280;28421;51.030;4.006;2023-02-28T11:32:49;103062.72;;;5.22;40.84
29417;BME280;28421;51.030;4.006;2023-02-28T11:35:25;103021.56;;;4.94;41.23
29417;BME280;28421;51.030;4.006;2023-02-28T11:37:52;103053.25;;;5.16;40.78
29417;BME280;28421;51.030;4.006;2023-02-28T11:40:23;102995.59;;;4.65;40.33
29417;BME280;28421;51.030;4.006;2023-02-28T11:43:03;103016.22;;;4.94;41.52
29417;BME280;28421;51.030;4.006;2023-02-28T11:45:45;103033.72;;;5.16;40.71
29417;BME280;28421;51.030;4.006;2023-02-28T11:48:22;103051.47;;;5.33;41.36
29417;BME280;28421;51.030;4.006;2023-02-28T11:54:05;103046.94;;;5.66;41.15
29417;BME280;28421;51.030;4.006;2023-02-28T11:56:46;103046.06;;;5.66;40.63
29417;BME280;28421;51.030;4.006;2023-02-28T12:04:50;103035.91;;;5.57;40.37
29417;BME280;28421;51.030;4.006;2023-02-28T12:10:36;103021.44;;;5.29;39.10
29417;BME280;28421;51.030;4.006;2023-02-28T12:13:35;102958.28;;;4.98;38.45
29417;BME280;28421;51.030;4.006;2023-02-28T12:19:26;103010.78;;;5.61;38.49
29417;BME280;28421;51.030;4.006;2023-02-28T12:27:44;102949.41;;;5.29;37.83
29417;BME280;28421;51.030;4.006;2023-02-28T12:30:49;102970.41;;;5.51;37.54
29417;BME280;28421;51.030;4.006;2023-02-28T12:33:19;102964.72;;;5.57;37.92
29417;BME280;28421;51.030;4.006;2023-02-28T12:36:10;102947.78;;;5.42;37.43
29417;BME280;28421;51.030;4.006;2023-02-28T12:38:47;102950.53;;;5.41;37.15
29417;BME280;28421;51.030;4.006;2023-02-28T12:41:36;102979.69;;;5.60;37.96
29417;BME280;28421;51.030;4.006;2023-02-28T12:44:09;102967.31;;;5.43;37.48
29417;BME280;28421;51.030;4.006;2023-02-28T12:46:41;102980.28;;;5.81;37.82
29417;BME280;28421;51.030;4.006;2023-02-28T12:49:41;102963.25;;;5.67;37.48
29417;BME280;28421;51.030;4.006;2023-02-28T12:52:04;102958.03;;;5.80;37.64
29417;BME280;28421;51.030;4.006;2023-02-28T12:54:52;102978.78;;;6.07;37.97
29417;BME280;28421;51.030;4.006;2023-02-28T12:57:42;102968.78;;;5.64;36.61
29417;BME280;28421;51.030;4.006;2023-02-28T13:00:17;102959.53;;;5.70;38.07
29417;BME280;28421;51.030;4.006;2023-02-28T13:03:11;102970.31;;;5.68;36.96
29417;BME280;28421;51.030;4.006;2023-02-28T13:11:29;102947.31;;;5.66;37.70
29417;BME280;28421;51.030;4.006;2023-02-28T13:14:01;102958.00;;;5.50;37.13
29417;BME280;28421;51.030;4.006;2023-02-28T13:16:28;102911.06;;;5.32;37.28
29417;BME280;28421;51.030;4.006;2023-02-28T13:19:08;102957.16;;;5.34;37.42
29417;BME280;28421;51.030;4.006;2023-02-28T13:21:43;102905.28;;;5.39;37.70
29417;BME280;28421;51.030;4.006;2023-02-28T13:24:10;102929.25;;;5.55;36.60
29417;BME280;28421;51.030;4.006;2023-02-28T13:29:28;102869.94;;;5.20;36.58
29417;BME280;28421;51.030;4.006;2023-02-28T13:34:47;102907.84;;;5.41;36.33
29417;BME280;28421;51.030;4.006;2023-02-28T13:39:53;102905.59;;;5.49;37.11
29417;BME280;28421;51.030;4.006;2023-02-28T13:58:14;102897.34;;;5.84;38.57
29417;BME280;28421;51.030;4.006;2023-02-28T14:03:36;102951.16;;;5.76;36.87
29417;BME280;28421;51.030;4.006;2023-02-28T14:08:58;102945.22;;;5.87;36.69
29417;BME280;28421;51.030;4.006;2023-02-28T14:11:31;102893.50;;;5.28;36.67
29417;BME280;28421;51.030;4.006;2023-02-28T14:13:57;102934.91;;;5.81;36.88
29417;BME280;28421;51.030;4.006;2023-02-28T14:16:25;102886.75;;;5.52;37.65
29417;BME280;28421;51.030;4.006;2023-02-28T14:18:58;102915.75;;;5.88;37.49
29417;BME280;28421;51.030;4.006;2023-02-28T14:32:21;102939.91;;;5.71;35.97
29417;BME280;28421;51.030;4.006;2023-02-28T14:35:16;102928.88;;;5.77;37.28
29417;BME280;28421;51.030;4.006;2023-02-28T14:37:44;102898.91;;;5.42;36.51
29417;BME280;28421;51.030;4.006;2023-02-28T14:40:21;102937.34;;;5.69;37.41
29417;BME280;28421;51.030;4.006;2023-02-28T14:42:56;102940.13;;;5.52;36.08
29417;BME280;28421;51.030;4.006;2023-02-28T14:45:22;102918.56;;;5.55;37.07
29417;BME280;28421;51.030;4.006;2023-02-28T14:47:50;102862.84;;;5.35;38.73
29417;BME280;28421;51.030;4.006;2023-02-28T14:50:22;102925.81;;;5.69;37.13
29417;BME280;28421;51.030;4.006;2023-02-28T14:52:52;102883.59;;;5.30;36.42
29417;BME280;28421;51.030;4.006;2023-02-28T14:55:19;102888.50;;;5.21;36.80
29417;BME280;28421;51.030;4.006;2023-02-28T14:57:54;102928.69;;;5.80;38.97
29417;BME280;28421;51.030;4.006;2023-02-28T15:00:27;102935.25;;;5.74;38.60
29417;BME280;28421;51.030;4.006;2023-02-28T15:02:54;102889.59;;;5.49;38.08
29417;BME280;28421;51.030;4.006;2023-02-28T15:05:30;102944.56;;;5.67;38.06
29417;BME280;28421;51.030;4.006;2023-02-28T15:08:14;102947.06;;;5.55;38.15
29417;BME280;28421;51.030;4.006;2023-02-28T15:10:43;102877.75;;;5.23;39.12
29417;BME280;28421;51.030;4.006;2023-02-28T15:13:14;102842.94;;;5.10;38.68
29417;BME280;28421;51.030;4.006;2023-02-28T15:15:54;102928.38;;;5.70;38.88
29417;BME280;28421;51.030;4.006;2023-02-28T15:18:30;102897.00;;;5.44;38.97
29417;BME280;28421;51.030;4.006;2023-02-28T15:20:59;102934.66;;;5.69;39.13
29417;BME280;28421;51.030;4.006;2023-02-28T15:23:27;102888.75;;;5.33;39.33
29417;BME280;28421;51.030;4.006;2023-02-28T15:25:53;102872.50;;;5.21;39.17
29417;BME280;28421;51.030;4.006;2023-02-28T15:28:20;102887.03;;;5.32;39.97
29417;BME280;28421;51.030;4.006;2023-02-28T15:30:57;102932.16;;;5.66;39.36
29417;BME280;28421;51.030;4.006;2023-02-28T15:33:25;102851.38;;;4.87;38.14
29417;BME280;28421;51.030;4.006;2023-02-28T15:35:51;102898.94;;;4.94;38.04
29417;BME280;28421;51.030;4.006;2023-02-28T15:38:27;102913.97;;;5.27;39.75
29417;BME280;28421;51.030;4.006;2023-02-28T15:40:53;102935.22;;;5.60;39.75
29417;BME280;28421;51.030;4.006;2023-02-28T15:45:56;102925.44;;;6.05;40.08
29417;BME280;28421;51.030;4.006;2023-02-28T15:48:25;102929.81;;;5.76;39.87
29417;BME280;28421;51.030;4.006;2023-02-28T15:50:57;102932.34;;;5.63;39.93
29417;BME280;28421;51.030;4.006;2023-02-28T15:53:31;102881.44;;;5.36;39.24
29417;BME280;28421;51.030;4.006;2023-02-28T15:56:12;102892.66;;;5.27;39.42
29417;BME280;28421;51.030;4.006;2023-02-28T15:58:44;102865.97;;;5.27;40.51
29417;BME280;28421;51.030;4.006;2023-02-28T16:03:47;102926.78;;;5.36;40.51
29417;BME280;28421;51.030;4.006;2023-02-28T16:08:41;102877.31;;;4.67;39.85
29417;BME280;28421;51.030;4.006;2023-02-28T16:11:09;102897.06;;;4.63;39.70
29417;BME280;28421;51.030;4.006;2023-02-28T16:13:35;102885.72;;;4.44;40.76
29417;BME280;28421;51.030;4.006;2023-02-28T16:16:00;102931.34;;;4.54;40.67
29417;BME280;28421;51.030;4.006;2023-02-28T16:18:26;102927.97;;;4.50;41.01
29417;BME280;28421;51.030;4.006;2023-02-28T16:20:53;102896.56;;;4.23;41.87
29417;BME280;28421;51.030;4.006;2023-02-28T16:23:19;102881.28;;;4.10;41.14
29417;BME280;28421;51.030;4.006;2023-02-28T16:25:44;102890.59;;;4.18;41.18
29417;BME280;28421;51.030;4.006;2023-02-28T16:28:20;102910.09;;;4.36;41.32
29417;BME280;28421;51.030;4.006;2023-02-28T16:30:53;102893.34;;;4.17;41.63
29417;BME280;28421;51.030;4.006;2023-02-28T16:33:18;102935.22;;;4.31;41.67
29417;BME280;28421;51.030;4.006;2023-02-28T16:35:44;102906.91;;;4.12;41.60
29417;BME280;28421;51.030;4.006;2023-02-28T16:38:09;102927.84;;;4.18;41.56
29417;BME280;28421;51.030;4.006;2023-02-28T16:40:36;102899.56;;;3.83;42.03
29417;BME280;28421;51.030;4.006;2023-02-28T16:43:05;102910.47;;;3.94;42.44
29417;BME280;28421;51.030;4.006;2023-02-28T16:45:32;102975.09;;;4.15;42.85
29417;BME280;28421;51.030;4.006;2023-02-28T16:47:57;102967.03;;;3.99;42.54
29417;BME280;28421;51.030;4.006;2023-02-28T16:50:26;102965.59;;;3.92;43.59
29417;BME280;28421;51.030;4.006;2023-02-28T16:52:52;102920.13;;;3.62;43.33
29417;BME280;28421;51.030;4.006;2023-02-28T16:55:20;102911.06;;;3.47;44.11
29417;BME280;28421;51.030;4.006;2023-02-28T16:57:55;102940.22;;;3.67;44.12
29417;BME280;28421;51.030;4.006;2023-02-28T17:00:21;102887.13;;;3.30;44.62
29417;BME280;28421;51.030;4.006;2023-02-28T17:02:47;102920.09;;;3.44;44.92
29417;BME280;28421;51.030;4.006;2023-02-28T17:05:13;102922.19;;;3.19;45.26
29417;BME280;28421;51.030;4.006;2023-02-28T17:07:40;102971.66;;;3.59;46.57
29417;BME280;28421;51.030;4.006;2023-02-28T17:10:28;102972.69;;;3.38;47.34
29417;BME280;28421;51.030;4.006;2023-02-28T17:12:54;102963.56;;;3.06;46.65
29417;BME280;28421;51.030;4.006;2023-02-28T17:15:19;102943.34;;;3.03;46.59
29417;BME280;28421;51.030;4.006;2023-02-28T17:17:46;102923.78;;;2.85;48.29
29417;BME280;28421;51.030;4.006;2023-02-28T17:20:16;102973.97;;;3.10;48.89
29417;BME280;28421;51.030;4.006;2023-02-28T17:22:42;102950.03;;;2.72;49.85
29417;BME280;28421;51.030;4.006;2023-02-28T17:25:09;102949.97;;;2.35;50.19
29417;BME280;28421;51.030;4.006;2023-02-28T17:27:35;102980.50;;;2.45;50.65
29417;BME280;28421;51.030;4.006;2023-02-28T17:30:03;102935.31;;;2.06;49.91
29417;BME280;28421;51.030;4.006;2023-02-28T17:32:29;102972.06;;;2.15;51.30
29417;BME280;28421;51.030;4.006;2023-02-28T17:34:54;102979.28;;;2.11;51.68
29417;BME280;28421;51.030;4.006;2023-02-28T17:37:20;103001.75;;;2.03;52.31
29417;BME280;28421;51.030;4.006;2023-02-28T17:39:45;102992.94;;;2.02;52.35
29417;BME280;28421;51.030;4.006;2023-02-28T17:42:11;102963.94;;;1.55;52.55
29417;BME280;28421;51.030;4.006;2023-02-28T17:44:37;102991.97;;;1.61;52.46
29417;BME280;28421;51.030;4.006;2023-02-28T17:47:03;103032.31;;;1.69;53.09
29417;BME280;28421;51.030;4.006;2023-02-28T17:49:29;102987.31;;;1.45;52.98
29417;BME280;28421;51.030;4.006;2023-02-28T17:51:55;103005.84;;;1.45;53.12
29417;BME280;28421;51.030;4.006;2023-02-28T17:54:20;102996.53;;;1.35;52.90
29417;BME280;28421;51.030;4.006;2023-02-28T17:56:46;102993.31;;;1.27;53.66
29417;BME280;28421;51.030;4.006;2023-02-28T17:59:12;103046.59;;;1.43;53.34
29417;BME280;28421;51.030;4.006;2023-02-28T18:01:38;103016.38;;;1.25;53.08
29417;BME280;28421;51.030;4.006;2023-02-28T18:04:03;103000.69;;;1.19;53.21
29417;BME280;28421;51.030;4.006;2023-02-28T18:06:38;102974.94;;;0.99;53.43
29417;BME280;28421;51.030;4.006;2023-02-28T18:09:16;103005.41;;;1.11;53.80
29417;BME280;28421;51.030;4.006;2023-02-28T18:11:42;103020.94;;;1.20;53.75
29417;BME280;28421;51.030;4.006;2023-02-28T18:14:10;102986.81;;;0.89;53.17
29417;BME280;28421;51.030;4.006;2023-02-28T18:16:36;102959.97;;;0.74;53.19
29417;BME280;28421;51.030;4.006;2023-02-28T18:19:03;102989.34;;;0.92;53.53
29417;BME280;28421;51.030;4.006;2023-02-28T18:21:28;103038.69;;;0.94;53.80
29417;BME280;28421;51.030;4.006;2023-02-28T18:23:54;102983.44;;;0.60;54.32
29417;BME280;28421;51.030;4.006;2023-02-28T18:26:19;103004.38;;;0.66;54.46
29417;BME280;28421;51.030;4.006;2023-02-28T18:28:45;103007.94;;;0.67;54.49
29417;BME280;28421;51.030;4.006;2023-02-28T18:31:14;103027.41;;;0.64;54.88
29417;BME280;28421;51.030;4.006;2023-02-28T18:33:41;102974.56;;;0.38;55.11
29417;BME280;28421;51.030;4.006;2023-02-28T18:36:07;103037.63;;;0.50;55.26
29417;BME280;28421;51.030;4.006;2023-02-28T18:38:32;103004.47;;;0.40;55.47
29417;BME280;28421;51.030;4.006;2023-02-28T18:41:01;103004.56;;;0.37;55.96
29417;BME280;28421;51.030;4.006;2023-02-28T18:43:27;103022.66;;;0.49;55.53
29417;BME280;28421;51.030;4.006;2023-02-28T18:45:53;103028.97;;;0.45;55.46
29417;BME280;28421;51.030;4.006;2023-02-28T18:48:18;103042.19;;;0.45;56.04
29417;BME280;28421;51.030;4.006;2023-02-28T18:50:51;103050.88;;;0.50;55.83
29417;BME280;28421;51.030;4.006;2023-02-28T18:53:17;103035.41;;;0.38;56.19
29417;BME280;28421;51.030;4.006;2023-02-28T18:55:43;103023.38;;;0.29;56.07
29417;BME280;28421;51.030;4.006;2023-02-28T18:58:10;103014.31;;;0.10;56.37
29417;BME280;28421;51.030;4.006;2023-02-28T19:00:35;103045.41;;;0.30;56.66
29417;BME280;28421;51.030;4.006;2023-02-28T19:03:02;103011.13;;;0.00;56.36
29417;BME280;28421;51.030;4.006;2023-02-28T19:05:27;102997.38;;;-0.11;56.78
29417;BME280;28421;51.030;4.006;2023-02-28T19:07:57;103030.38;;;0.04;57.00
29417;BME280;28421;51.030;4.006;2023-02-28T19:10:23;103056.13;;;0.25;56.57
29417;BME280;28421;51.030;4.006;2023-02-28T19:12:48;102980.59;;;-0.10;56.48
29417;BME280;28421;51.030;4.006;2023-02-28T19:15:14;103038.66;;;0.19;57.01
29417;BME280;28421;51.030;4.006;2023-02-28T19:17:39;103056.13;;;0.25;56.81
29417;BME280;28421;51.030;4.006;2023-02-28T19:20:06;102999.81;;;-0.05;56.69
29417;BME280;28421;51.030;4.006;2023-02-28T19:22:32;103025.19;;;0.01;56.94
29417;BME280;28421;51.030;4.006;2023-02-28T19:24:58;103045.81;;;0.17;56.89
29417;BME280;28421;51.030;4.006;2023-02-28T19:27:23;103020.63;;;0.06;57.13
29417;BME280;28421;51.030;4.006;2023-02-28T19:29:50;103057.88;;;0.24;56.53
29417;BME280;28421;51.030;4.006;2023-02-28T19:32:19;103074.94;;;0.42;56.91
29417;BME280;28421;51.030;4.006;2023-02-28T19:34:45;103030.03;;;0.14;56.27
29417;BME280;28421;51.030;4.006;2023-02-28T19:37:11;103026.63;;;0.11;56.41
29417;BME280;28421;51.030;4.006;2023-02-28T19:39:37;103078.97;;;0.54;55.72
29417;BME280;28421;51.030;4.006;2023-02-28T19:42:09;103072.69;;;0.57;56.41
29417;BME280;28421;51.030;4.006;2023-02-28T19:44:35;103033.78;;;0.34;56.41
29417;BME280;28421;51.030;4.006;2023-02-28T19:47:01;103041.13;;;0.26;57.33
29417;BME280;28421;51.030;4.006;2023-02-28T19:49:27;103084.25;;;0.54;56.96
29417;BME280;28421;51.030;4.006;2023-02-28T19:51:52;103031.66;;;0.18;57.05
29417;BME280;28421;51.030;4.006;2023-02-28T19:54:18;103079.66;;;0.33;57.28
29417;BME280;28421;51.030;4.006;2023-02-28T19:56:43;103058.78;;;0.25;56.92
29417;BME280;28421;51.030;4.006;2023-02-28T19:59:09;102991.16;;;-0.10;56.09
29417;BME280;28421;51.030;4.006;2023-02-28T20:01:34;103033.94;;;0.29;56.30
29417;BME280;28421;51.030;4.006;2023-02-28T20:04:00;103088.72;;;0.52;56.58
29417;BME280;28421;51.030;4.006;2023-02-28T20:06:32;103010.38;;;-0.05;57.44
29417;BME280;28421;51.030;4.006;2023-02-28T20:08:58;103034.94;;;-0.02;58.34
29417;BME280;28421;51.030;4.006;2023-02-28T20:11:23;103046.31;;;0.02;58.49
29417;BME280;28421;51.030;4.006;2023-02-28T20:13:53;103023.44;;;-0.27;58.47
29417;BME280;28421;51.030;4.006;2023-02-28T20:16:19;103067.03;;;-0.12;58.86
29417;BME280;28421;51.030;4.006;2023-02-28T20:18:48;103055.25;;;-0.30;59.20
29417;BME280;28421;51.030;4.006;2023-02-28T20:21:16;103036.63;;;-0.55;59.17
29417;BME280;28421;51.030;4.006;2023-02-28T20:23:43;103048.03;;;-0.53;59.40
29417;BME280;28421;51.030;4.006;2023-02-28T20:26:10;103013.28;;;-0.69;58.86
29417;BME280;28421;51.030;4.006;2023-02-28T20:28:37;103104.38;;;-0.23;59.49
29417;BME280;28421;51.030;4.006;2023-02-28T20:31:18;103029.00;;;-0.64;59.35
29417;BME280;28421;51.030;4.006;2023-02-28T20:33:44;103039.38;;;-0.58;59.16
29417;BME280;28421;51.030;4.006;2023-02-28T20:36:12;103082.06;;;-0.42;59.31
29417;BME280;28421;51.030;4.006;2023-02-28T20:38:40;103084.47;;;-0.35;59.24
29417;BME280;28421;51.030;4.006;2023-02-28T20:41:05;103080.47;;;-0.48;59.80
29417;BME280;28421;51.030;4.006;2023-02-28T20:43:31;103048.28;;;-0.62;59.13
29417;BME280;28421;51.030;4.006;2023-02-28T20:45:58;103108.16;;;-0.32;59.51
29417;BME280;28421;51.030;4.006;2023-02-28T20:48:29;103093.22;;;-0.33;59.56
29417;BME280;28421;51.030;4.006;2023-02-28T20:50:56;103086.34;;;-0.38;59.83
29417;BME280;28421;51.030;4.006;2023-02-28T20:53:23;103102.88;;;-0.32;59.52
29417;BME280;28421;51.030;4.006;2023-02-28T20:55:56;103099.31;;;-0.31;59.56
29417;BME280;28421;51.030;4.006;2023-02-28T20:58:23;103088.97;;;-0.38;59.65
29417;BME280;28421;51.030;4.006;2023-02-28T21:00:49;103041.41;;;-0.66;59.39
29417;BME280;28421;51.030;4.006;2023-02-28T21:03:14;103036.38;;;-0.76;59.48
29417;BME280;28421;51.030;4.006;2023-02-28T21:05:40;103061.91;;;-0.46;59.63
29417;BME280;28421;51.030;4.006;2023-02-28T21:08:05;103060.81;;;-0.39;59.18
29417;BME280;28421;51.030;4.006;2023-02-28T21:10:31;103066.47;;;-0.52;60.00
29417;BME280;28421;51.030;4.006;2023-02-28T21:12:57;103059.63;;;-0.59;59.45
29417;BME280;28421;51.030;4.006;2023-02-28T21:15:23;103056.06;;;-0.56;59.67
29417;BME280;28421;51.030;4.006;2023-02-28T21:17:49;103072.72;;;-0.54;59.39
29417;BME280;28421;51.030;4.006;2023-02-28T21:20:14;103059.13;;;-0.71;59.99
29417;BME280;28421;51.030;4.006;2023-02-28T21:22:49;103082.03;;;-0.70;60.50
29417;BME280;28421;51.030;4.006;2023-02-28T21:25:15;103071.09;;;-0.89;60.54
29417;BME280;28421;51.030;4.006;2023-02-28T21:27:41;103085.56;;;-0.71;60.86
29417;BME280;28421;51.030;4.006;2023-02-28T21:30:07;103043.31;;;-1.03;60.64
29417;BME280;28421;51.030;4.006;2023-02-28T21:32:33;103045.13;;;-1.05;60.98
29417;BME280;28421;51.030;4.006;2023-02-28T21:34:58;103064.84;;;-0.85;60.82
29417;BME280;28421;51.030;4.006;2023-02-28T21:37:24;103035.63;;;-1.10;60.91
29417;BME280;28421;51.030;4.006;2023-02-28T21:39:50;103078.31;;;-0.94;61.41
29417;BME280;28421;51.030;4.006;2023-02-28T21:42:16;103059.94;;;-0.99;60.94
29417;BME280;28421;51.030;4.006;2023-02-28T21:44:41;103042.41;;;-1.02;60.84
29417;BME280;28421;51.030;4.006;2023-02-28T21:47:07;103066.00;;;-0.95;61.35
29417;BME280;28421;51.030;4.006;2023-02-28T21:49:32;103088.59;;;-0.85;61.54
29417;BME280;28421;51.030;4.006;2023-02-28T21:51:58;102995.59;;;-1.26;61.66
29417;BME280;28421;51.030;4.006;2023-02-28T21:54:24;103098.19;;;-0.52;61.37
29417;BME280;28421;51.030;4.006;2023-02-28T21:56:49;103033.06;;;-0.82;60.83
29417;BME280;28421;51.030;4.006;2023-02-28T21:59:15;103100.00;;;-0.24;60.18
29417;BME280;28421;51.030;4.006;2023-02-28T22:01:42;103053.13;;;-0.47;59.88